createdAt,value
2019-01-20T00:03:11.516Z,-2.02
2019-01-20T00:09:19.976Z,-2.11
2019-01-20T00:15:26.024Z,-2.20
2019-01-20T00:21:31.912Z,-2.18
2019-01-20T00:27:37.716Z,-2.19
2019-01-20T00:33:43.459Z,-2.23
2019-01-20T00:39:49.246Z,-2.30
2019-01-20T00:45:55.681Z,-2.34
2019-01-20T00:52:02.317Z,-2.34
2019-01-20T00:58:08.460Z,-2.32
2019-01-20T01:04:14.503Z,-2.36
2019-01-20T01:10:20.572Z,-2.37
2019-01-20T01:16:26.309Z,-2.30
2019-01-20T01:22:32.166Z,-2.33
2019-01-20T01:28:38.250Z,-2.36
2019-01-20T01:34:44.146Z,-2.39
2019-01-20T01:40:49.978Z,-2.50
2019-01-20T01:46:55.827Z,-2.52
2019-01-20T01:53:01.681Z,-2.44
2019-01-20T01:59:07.615Z,-2.42
2019-01-20T02:05:13.778Z,-2.50
2019-01-20T02:11:22.637Z,-2.55
2019-01-20T02:17:28.521Z,-2.63
2019-01-20T02:23:37.350Z,-2.64
2019-01-20T02:29:43.217Z,-2.60
2019-01-20T02:35:49.084Z,-2.57
2019-01-20T02:41:55.462Z,-2.56
2019-01-20T02:48:03.281Z,-2.58
2019-01-20T02:54:09.175Z,-2.65
2019-01-20T03:00:23.698Z,-2.67
2019-01-20T03:06:29.672Z,-2.70
2019-01-20T03:12:35.607Z,-2.83
2019-01-20T03:18:41.510Z,-3.01
2019-01-20T03:24:47.498Z,-3.10
2019-01-20T03:30:56.232Z,-3.09
2019-01-20T03:37:02.057Z,-3.15
2019-01-20T03:43:09.803Z,-3.16
2019-01-20T03:49:15.639Z,-3.15
2019-01-20T03:55:21.831Z,-3.17
2019-01-20T04:01:27.593Z,-3.23
2019-01-20T04:07:33.615Z,-3.29
2019-01-20T04:13:39.624Z,-3.23
2019-01-20T04:19:45.472Z,-3.17
2019-01-20T04:25:51.436Z,-3.08
2019-01-20T04:31:57.367Z,-3.02
2019-01-20T04:38:03.328Z,-3.14
2019-01-20T04:44:09.041Z,-3.27
2019-01-20T04:50:17.962Z,-3.42
2019-01-20T04:56:23.907Z,-3.45
2019-01-20T05:02:29.788Z,-3.62
2019-01-20T05:08:37.664Z,-3.70
2019-01-20T05:14:43.603Z,-3.66
2019-01-20T05:20:49.687Z,-3.61
2019-01-20T05:26:59.994Z,-3.64
2019-01-20T05:33:06.057Z,-3.66
2019-01-20T05:39:12.060Z,-3.58
2019-01-20T05:45:20.824Z,-3.59
2019-01-20T05:51:26.577Z,-3.59
2019-01-20T05:57:33.359Z,-3.51
2019-01-20T06:03:39.327Z,-3.44
2019-01-20T06:09:45.184Z,-3.47
2019-01-20T06:15:50.967Z,-3.50
2019-01-20T06:21:57.021Z,-3.51
2019-01-20T06:28:02.723Z,-3.58
2019-01-20T06:34:08.573Z,-3.76
2019-01-20T06:40:17.507Z,-3.86
2019-01-20T06:46:23.355Z,-3.87
2019-01-20T06:52:32.412Z,-3.92
2019-01-20T06:58:38.489Z,-3.96
2019-01-20T07:04:44.591Z,-3.94
2019-01-20T07:10:50.382Z,-3.98
2019-01-20T07:16:58.518Z,-4.02
2019-01-20T07:23:04.276Z,-4.05
2019-01-20T07:29:12.189Z,-4.12
2019-01-20T07:35:18.178Z,-4.12
2019-01-20T07:41:23.970Z,-4.08
2019-01-20T07:47:29.740Z,-4.09
2019-01-20T07:53:35.499Z,-4.16
2019-01-20T07:59:41.488Z,-4.11
2019-01-20T08:05:47.259Z,-3.99
2019-01-20T08:11:53.079Z,-3.92
2019-01-20T08:17:59.283Z,-3.90
2019-01-20T08:24:05.078Z,-3.80
2019-01-20T08:30:14.958Z,-3.73
2019-01-20T08:36:20.761Z,-3.62
2019-01-20T08:42:26.714Z,-3.57
2019-01-20T08:48:32.840Z,-3.49
2019-01-20T08:54:38.582Z,-3.36
2019-01-20T09:00:44.347Z,-3.21
2019-01-20T09:06:50.045Z,-3.05
2019-01-20T09:12:58.262Z,-2.93
2019-01-20T09:19:06.048Z,-2.78
2019-01-20T09:25:12.629Z,-2.60
2019-01-20T09:31:18.438Z,-2.42
2019-01-20T09:37:24.962Z,-2.25
2019-01-20T09:43:33.476Z,-2.06
2019-01-20T09:49:39.170Z,-1.86
2019-01-20T09:55:45.017Z,-1.67
2019-01-20T10:01:51.115Z,-1.44
2019-01-20T10:07:57.191Z,-1.24
2019-01-20T10:14:03.253Z,-1.03
2019-01-20T10:20:17.785Z,-0.86
2019-01-20T10:26:23.878Z,-0.71
2019-01-20T10:32:29.858Z,-0.55
2019-01-20T10:38:37.369Z,-0.40
2019-01-20T10:44:43.352Z,-0.26
2019-01-20T10:50:49.439Z,-0.13
2019-01-20T10:56:55.256Z,-0.01
2019-01-20T11:03:02.434Z,0.13
2019-01-20T11:09:11.193Z,0.25
2019-01-20T11:15:17.144Z,0.37
2019-01-20T11:21:24.482Z,0.52
2019-01-20T11:27:30.557Z,0.64
2019-01-20T11:33:39.946Z,0.82
2019-01-20T11:39:45.951Z,0.94
2019-01-20T11:45:51.760Z,1.11
2019-01-20T11:51:57.878Z,1.22
2019-01-20T11:58:04.016Z,1.38
2019-01-20T12:04:15.375Z,1.48
2019-01-20T12:10:29.324Z,1.58
2019-01-20T12:16:35.134Z,1.72
2019-01-20T12:22:41.382Z,1.83
2019-01-20T12:28:47.176Z,1.94
2019-01-20T12:34:53.120Z,2.01
2019-01-20T12:40:58.984Z,2.08
2019-01-20T12:47:09.661Z,2.16
2019-01-20T12:53:15.828Z,2.20
2019-01-20T12:59:21.981Z,2.26
2019-01-20T13:05:30.046Z,2.32
2019-01-20T13:11:36.212Z,2.40
2019-01-20T13:17:42.607Z,2.43
2019-01-20T13:23:48.523Z,2.47
2019-01-20T13:30:03.576Z,2.53
2019-01-20T13:36:09.942Z,2.56
2019-01-20T13:42:15.917Z,2.61
2019-01-20T13:48:23.880Z,2.63
2019-01-20T13:54:29.541Z,2.63
2019-01-20T14:00:35.654Z,2.65
2019-01-20T14:06:42.534Z,2.67
2019-01-20T14:12:48.696Z,2.68
2019-01-20T14:18:58.558Z,2.70
2019-01-20T14:25:05.138Z,2.68
2019-01-20T14:31:11.156Z,2.70
2019-01-20T14:37:17.106Z,2.68
2019-01-20T14:43:23.032Z,2.70
2019-01-20T14:49:29.158Z,2.71
2019-01-20T14:55:36.046Z,2.68
2019-01-20T15:01:42.645Z,2.62
2019-01-20T15:07:49.008Z,2.59
2019-01-20T15:13:55.281Z,2.52
2019-01-20T15:20:01.140Z,2.43
2019-01-20T15:26:06.903Z,2.37
2019-01-20T15:32:13.015Z,2.26
2019-01-20T15:38:19.178Z,2.17
2019-01-20T15:44:25.838Z,2.07
2019-01-20T15:50:33.193Z,1.95
2019-01-20T15:56:39.727Z,1.85
2019-01-20T16:02:46.007Z,1.77
2019-01-20T16:08:52.123Z,1.69
2019-01-20T16:14:58.345Z,1.59
2019-01-20T16:21:05.096Z,1.50
2019-01-20T16:27:11.438Z,1.39
2019-01-20T16:33:17.224Z,1.33
2019-01-20T16:39:26.267Z,1.23
2019-01-20T16:45:41.958Z,1.15
2019-01-20T16:51:47.444Z,1.10
2019-01-20T16:57:53.574Z,1.06
2019-01-20T17:03:59.733Z,1.02
2019-01-20T17:10:08.478Z,0.95
2019-01-20T17:16:16.760Z,0.85
2019-01-20T17:22:22.606Z,0.79
2019-01-20T17:28:28.648Z,0.72
2019-01-20T17:34:34.603Z,0.65
2019-01-20T17:40:40.695Z,0.57
2019-01-20T17:46:46.954Z,0.48
2019-01-20T17:52:53.285Z,0.44
2019-01-20T17:59:04.412Z,0.37
2019-01-20T18:05:12.741Z,0.31
2019-01-20T18:11:21.443Z,0.26
2019-01-20T18:17:27.674Z,0.18
2019-01-20T18:23:33.891Z,0.11
2019-01-20T18:29:39.670Z,0.09
2019-01-20T18:35:45.625Z,0.07
2019-01-20T18:41:52.014Z,0.03
2019-01-20T18:47:59.747Z,-0.02
2019-01-20T18:54:05.947Z,-0.03
2019-01-20T19:00:17.796Z,-0.03
2019-01-20T19:06:25.116Z,-0.05
2019-01-20T19:12:30.924Z,-0.10
2019-01-20T19:18:37.999Z,-0.14
2019-01-20T19:24:44.081Z,-0.18
2019-01-20T19:30:50.246Z,-0.22
2019-01-20T19:36:55.933Z,-0.26
2019-01-20T19:43:05.510Z,-0.33
2019-01-20T19:49:11.622Z,-0.36
2019-01-20T19:55:24.223Z,-0.40
2019-01-20T20:01:31.139Z,-0.43
2019-01-20T20:07:37.355Z,-0.53
2019-01-20T20:13:43.261Z,-0.50
2019-01-20T20:19:49.066Z,-0.48
2019-01-20T20:25:54.857Z,-0.51
2019-01-20T20:32:00.650Z,-0.55
2019-01-20T20:38:07.618Z,-0.54
2019-01-20T20:44:13.489Z,-0.58
2019-01-20T20:50:19.684Z,-0.58
2019-01-20T20:56:26.288Z,-0.58
2019-01-20T21:02:32.144Z,-0.68
2019-01-20T21:08:38.272Z,-0.70
2019-01-20T21:14:44.370Z,-0.71
2019-01-20T21:20:50.142Z,-0.77
2019-01-20T21:26:56.535Z,-0.81
2019-01-20T21:33:02.612Z,-0.88
2019-01-20T21:39:10.155Z,-1.32
2019-01-20T21:45:17.006Z,-1.60
2019-01-20T21:51:22.988Z,-1.58
2019-01-20T21:57:28.961Z,-1.51
2019-01-20T22:03:35.018Z,-1.48
2019-01-20T22:09:40.896Z,-1.46
2019-01-20T22:15:46.702Z,-1.38
2019-01-20T22:21:52.486Z,-1.36
2019-01-20T22:27:58.244Z,-1.37
2019-01-20T22:34:04.235Z,-1.40
2019-01-20T22:40:12.343Z,-1.43
2019-01-20T22:46:18.073Z,-1.51
2019-01-20T22:52:23.900Z,-1.57
2019-01-20T22:58:29.790Z,-1.81
2019-01-20T23:04:35.608Z,-2.14
2019-01-20T23:10:41.833Z,-2.56
2019-01-20T23:16:47.591Z,-2.62
2019-01-20T23:22:54.322Z,-2.76
2019-01-20T23:29:00.465Z,-3.02
2019-01-20T23:35:07.255Z,-3.05
2019-01-20T23:41:12.996Z,-3.04
2019-01-20T23:47:18.950Z,-3.04
2019-01-20T23:53:24.892Z,-3.01
2019-01-20T23:59:30.621Z,-2.94
